Time;durP1;ratioP1;P1;durP2;ratioP2;P2;SDS_P1;SDS_P2;PMS_P1;PMS_P2;Temp;Humidity;BMP_temperature;BMP_pressure;BME280_temperature;BME280_humidity;BME280_pressure;Samples;Min_cycle;Max_cycle;Signal;HPM_P1;HPM_P2
2023/11/13 00:00:51;;;;;;;31.75;18.20;;;5.20;99.90;;;;;;5065069;28;20471;-69
2023/11/13 00:03:16;;;;;;;59.40;18.23;;;5.30;99.90;;;;;;5069902;28;20041;-69
2023/11/13 00:05:42;;;;;;;72.40;19.27;;;5.20;99.90;;;;;;5066658;28;20364;-69
2023/11/13 00:08:08;;;;;;;42.08;18.85;;;5.30;99.90;;;;;;5069772;28;20072;-69
2023/11/13 00:10:34;;;;;;;77.97;18.70;;;5.30;99.90;;;;;;5068808;28;20047;-69
2023/11/13 00:12:59;;;;;;;71.70;19.13;;;5.30;99.90;;;;;;5065919;28;20487;-70
2023/11/13 00:15:25;;;;;;;69.38;19.88;;;5.40;99.90;;;;;;5067411;28;20037;-69
2023/11/13 00:17:51;;;;;;;67.25;18.92;;;5.30;99.90;;;;;;5065367;28;20049;-69
2023/11/13 00:20:18;;;;;;;52.50;18.73;;;5.30;99.90;;;;;;5065601;28;20135;-69
2023/11/13 00:22:45;;;;;;;82.43;18.90;;;5.40;99.90;;;;;;5066122;28;20055;-69
2023/11/13 00:25:10;;;;;;;73.43;19.48;;;5.30;99.90;;;;;;5067545;28;20041;-69
2023/11/13 00:27:36;;;;;;;68.95;18.70;;;5.30;99.90;;;;;;5067783;28;20060;-69
2023/11/13 00:30:02;;;;;;;94.82;19.88;;;5.30;99.90;;;;;;5065530;28;20057;-69
2023/11/13 00:32:28;;;;;;;65.88;19.80;;;5.30;99.90;;;;;;5064108;28;20048;-69
2023/11/13 00:34:54;;;;;;;78.78;19.88;;;5.30;99.90;;;;;;5095091;28;20040;-69
2023/11/13 00:37:20;;;;;;;49.33;18.27;;;5.30;99.90;;;;;;5068549;28;20479;-69
2023/11/13 00:39:45;;;;;;;59.72;17.83;;;5.20;99.90;;;;;;5093055;28;20047;-69
2023/11/13 00:42:11;;;;;;;59.97;19.95;;;5.30;99.90;;;;;;5068051;28;20132;-69
2023/11/13 00:44:37;;;;;;;90.07;19.20;;;5.20;99.90;;;;;;5060704;28;20036;-69
2023/11/13 00:47:03;;;;;;;85.47;19.05;;;5.20;99.90;;;;;;5067340;28;20043;-69
2023/11/13 00:49:29;;;;;;;40.08;17.55;;;5.30;99.90;;;;;;5095565;28;20048;-69
2023/11/13 00:51:55;;;;;;;80.00;20.17;;;5.30;99.90;;;;;;5100695;28;20106;-69
2023/11/13 00:54:21;;;;;;;45.85;17.88;;;5.30;99.90;;;;;;5071914;28;20044;-69
2023/11/13 00:56:48;;;;;;;71.68;18.33;;;5.30;99.90;;;;;;5070650;28;20044;-69
2023/11/13 00:59:13;;;;;;;60.60;19.08;;;5.30;99.90;;;;;;5070412;28;20051;-69
2023/11/13 01:01:39;;;;;;;33.40;17.83;;;5.30;99.90;;;;;;5069388;28;20040;-69
2023/11/13 01:04:06;;;;;;;44.03;18.42;;;5.20;99.90;;;;;;5067682;28;20029;-69
2023/11/13 01:06:32;;;;;;;75.50;19.73;;;5.20;99.90;;;;;;5067852;28;20032;-69
2023/11/13 01:08:58;;;;;;;53.70;18.42;;;5.30;99.90;;;;;;5070124;28;20048;-69
2023/11/13 01:11:24;;;;;;;72.15;18.98;;;5.30;99.90;;;;;;5070419;28;20045;-69
2023/11/13 01:13:50;;;;;;;146.50;23.05;;;5.20;99.90;;;;;;5068120;28;20036;-69
2023/11/13 01:16:18;;;;;;;72.93;19.15;;;5.10;99.90;;;;;;5070702;28;20029;-69
2023/11/13 01:18:44;;;;;;;76.70;18.80;;;5.50;99.90;;;;;;5075577;28;20045;-69
2023/11/13 01:21:18;;;;;;;82.65;19.90;;;5.10;99.90;;;;;;5098145;28;20077;-69
2023/11/13 01:23:44;;;;;;;113.20;21.17;;;5.00;99.90;;;;;;5078532;28;20044;-69
2023/11/13 01:26:10;;;;;;;74.40;18.27;;;5.00;99.90;;;;;;5068621;28;20044;-69
2023/11/13 01:28:35;;;;;;;66.82;16.95;;;5.00;99.90;;;;;;5068154;28;20041;-69
2023/11/13 01:31:02;;;;;;;109.45;19.23;;;4.90;99.90;;;;;;5069970;28;20052;-69
2023/11/13 01:33:27;;;;;;;98.07;19.15;;;5.60;99.90;;;;;;5069594;28;20078;-69
2023/11/13 01:35:53;;;;;;;124.70;21.58;;;4.70;99.90;;;;;;5069059;28;20523;-69
2023/11/13 01:38:18;;;;;;;75.60;17.45;;;4.70;99.90;;;;;;5071506;28;20032;-70
2023/11/13 01:40:44;;;;;;;82.45;18.73;;;4.60;99.90;;;;;;5098685;28;20038;-69
2023/11/13 01:43:22;;;;;;;72.53;16.33;;;4.60;99.90;;;;;;5070311;28;20040;-69
2023/11/13 01:45:51;;;;;;;74.18;17.38;;;4.60;99.90;;;;;;5069329;28;20033;-69
2023/11/13 01:48:18;;;;;;;49.55;15.52;;;4.60;99.90;;;;;;5098342;28;20152;-69
2023/11/13 01:50:44;;;;;;;46.88;14.88;;;4.50;99.90;;;;;;5068867;28;20790;-69
2023/11/13 01:53:12;;;;;;;65.55;16.75;;;4.60;99.90;;;;;;5068141;28;20041;-70
2023/11/13 01:55:38;;;;;;;43.47;16.77;;;4.60;99.90;;;;;;5070401;28;20674;-69
2023/11/13 01:58:05;;;;;;;59.38;15.80;;;4.50;99.90;;;;;;5069945;28;20135;-69
2023/11/13 02:00:31;;;;;;;88.07;16.92;;;4.50;99.90;;;;;;5069082;28;20045;-69
2023/11/13 02:02:58;;;;;;;84.88;15.70;;;4.40;99.90;;;;;;5098290;28;20048;-69
2023/11/13 02:05:24;;;;;;;68.35;15.18;;;4.40;99.90;;;;;;5068106;28;20090;-69
2023/11/13 02:07:52;;;;;;;82.75;17.27;;;4.30;99.90;;;;;;5050161;28;20040;-69
2023/11/13 02:10:18;;;;;;;55.03;14.90;;;4.20;99.90;;;;;;5068870;28;20490;-69
2023/11/13 02:12:44;;;;;;;68.43;16.15;;;4.20;99.90;;;;;;5066901;28;20134;-69
2023/11/13 02:15:09;;;;;;;77.65;15.68;;;4.20;99.90;;;;;;5069041;28;20391;-69
2023/11/13 02:17:35;;;;;;;80.28;16.75;;;4.10;99.90;;;;;;5069154;28;20044;-69
2023/11/13 02:20:02;;;;;;;43.72;12.15;;;4.00;99.90;;;;;;5066863;28;20083;-69
2023/11/13 02:22:28;;;;;;;67.32;14.52;;;4.00;99.90;;;;;;5065815;28;20045;-69
2023/11/13 02:24:53;;;;;;;58.83;15.13;;;3.90;99.90;;;;;;5060980;28;20039;-70
2023/11/13 02:27:19;;;;;;;38.72;13.45;;;3.90;99.90;;;;;;5065091;28;20040;-69
2023/11/13 02:29:45;;;;;;;31.48;13.02;;;3.80;99.90;;;;;;5065785;28;20384;-69
2023/11/13 02:32:11;;;;;;;106.15;19.63;;;3.80;99.90;;;;;;5064589;28;20040;-69
2023/11/13 02:34:37;;;;;;;28.67;12.32;;;3.70;99.90;;;;;;5064212;28;20082;-69
2023/11/13 02:37:03;;;;;;;44.55;12.90;;;3.70;99.90;;;;;;5065786;28;20057;-69
2023/11/13 02:39:28;;;;;;;33.83;13.25;;;3.60;99.90;;;;;;5062061;28;20086;-69
2023/11/13 02:41:55;;;;;;;34.42;14.13;;;3.70;99.90;;;;;;5064914;28;20048;-69
2023/11/13 02:44:21;;;;;;;32.60;14.23;;;3.60;99.90;;;;;;5066275;28;20052;-69
2023/11/13 02:46:46;;;;;;;36.03;12.45;;;3.60;99.90;;;;;;5067679;28;20834;-69
2023/11/13 02:49:13;;;;;;;33.15;13.93;;;3.50;99.90;;;;;;5068572;28;20040;-69
2023/11/13 02:51:39;;;;;;;51.45;15.20;;;3.50;99.90;;;;;;5064820;28;20058;-69
2023/11/13 02:54:06;;;;;;;51.28;15.77;;;3.50;99.90;;;;;;5062677;28;20174;-69
2023/11/13 02:56:32;;;;;;;36.58;14.60;;;3.80;99.90;;;;;;5066360;28;20692;-69
2023/11/13 02:58:57;;;;;;;37.95;15.90;;;3.50;99.90;;;;;;5066236;28;20364;-69
2023/11/13 03:01:23;;;;;;;52.17;16.02;;;3.50;99.90;;;;;;5065333;28;20043;-69
2023/11/13 03:03:48;;;;;;;34.97;16.48;;;3.50;99.90;;;;;;5064891;28;20115;-69
2023/11/13 03:06:14;;;;;;;40.97;16.30;;;3.50;99.90;;;;;;5065459;28;20049;-70
2023/11/13 03:08:44;;;;;;;29.27;14.05;;;3.50;99.90;;;;;;5066485;28;20036;-69
2023/11/13 03:11:13;;;;;;;34.58;17.02;;;3.50;99.90;;;;;;5056771;28;20088;-69
2023/11/13 03:13:40;;;;;;;23.42;15.30;;;3.60;99.90;;;;;;5096632;28;20044;-69
2023/11/13 03:16:07;;;;;;;28.67;14.45;;;3.60;99.90;;;;;;5068256;28;20044;-70
2023/11/13 03:18:32;;;;;;;18.42;15.75;;;3.60;99.90;;;;;;5064178;28;20436;-69
2023/11/13 03:21:00;;;;;;;18.65;14.80;;;3.60;99.90;;;;;;5097662;28;20123;-69
2023/11/13 03:23:26;;;;;;;24.75;16.15;;;3.70;99.90;;;;;;5095731;28;20070;-69
2023/11/13 03:25:51;;;;;;;31.42;17.50;;;3.70;99.90;;;;;;5063841;28;20072;-69
2023/11/13 03:28:17;;;;;;;23.25;17.73;;;3.70;99.90;;;;;;5065220;28;20117;-69
2023/11/13 03:30:43;;;;;;;28.23;17.13;;;3.70;99.90;;;;;;5065735;28;20037;-69
2023/11/13 03:33:08;;;;;;;20.95;16.98;;;3.70;99.90;;;;;;5061813;28;20083;-69
2023/11/13 03:35:34;;;;;;;21.38;16.67;;;3.70;99.90;;;;;;5064442;28;20044;-69
2023/11/13 03:37:59;;;;;;;26.15;17.00;;;3.60;99.90;;;;;;5095215;28;20047;-69
2023/11/13 03:40:25;;;;;;;22.25;17.35;;;3.70;99.90;;;;;;5062936;28;20636;-69
2023/11/13 03:42:51;;;;;;;18.33;16.38;;;3.70;99.90;;;;;;5065479;28;20049;-69
2023/11/13 03:45:16;;;;;;;21.45;16.75;;;3.70;99.90;;;;;;5064874;28;20048;-70
2023/11/13 03:47:42;;;;;;;19.67;16.58;;;3.70;99.90;;;;;;5066075;28;20047;-69
2023/11/13 03:50:08;;;;;;;22.92;16.73;;;3.70;99.90;;;;;;5067192;28;20097;-69
2023/11/13 03:52:34;;;;;;;18.23;15.68;;;3.70;99.90;;;;;;5064962;28;20044;-69
2023/11/13 03:55:00;;;;;;;22.40;16.63;;;3.70;99.90;;;;;;5064904;28;20033;-69
2023/11/13 03:57:26;;;;;;;22.02;15.60;;;3.80;99.90;;;;;;5063241;28;20616;-69
2023/11/13 03:59:52;;;;;;;18.30;14.77;;;3.80;99.90;;;;;;5063702;28;20401;-69
2023/11/13 04:02:18;;;;;;;20.08;14.52;;;3.90;99.90;;;;;;5094609;28;20037;-69
2023/11/13 04:04:44;;;;;;;22.08;14.48;;;3.80;99.90;;;;;;5066664;28;20093;-69
2023/11/13 04:07:10;;;;;;;19.25;15.52;;;3.80;99.90;;;;;;5066994;28;21369;-69
2023/11/13 04:09:36;;;;;;;15.07;13.10;;;3.90;99.90;;;;;;5063164;28;20375;-69
2023/11/13 04:12:02;;;;;;;20.17;14.27;;;3.90;99.90;;;;;;5064252;28;20044;-69
2023/11/13 04:14:28;;;;;;;20.35;14.23;;;4.00;99.90;;;;;;5065314;28;20028;-69
2023/11/13 04:16:54;;;;;;;18.58;13.98;;;4.00;99.90;;;;;;5066418;28;20135;-69
2023/11/13 04:19:22;;;;;;;16.63;12.15;;;4.00;99.90;;;;;;5064610;28;20242;-69
2023/11/13 04:21:48;;;;;;;16.38;13.73;;;4.00;99.90;;;;;;5097766;28;20070;-69
2023/11/13 04:24:14;;;;;;;15.43;13.73;;;4.00;99.90;;;;;;5064299;28;20071;-69
2023/11/13 04:26:39;;;;;;;31.38;14.23;;;4.10;99.90;;;;;;5098461;28;20478;-69
2023/11/13 04:29:05;;;;;;;18.42;14.07;;;4.10;99.90;;;;;;5066637;28;20548;-69
2023/11/13 04:31:31;;;;;;;22.52;13.48;;;4.10;99.90;;;;;;5069408;28;20037;-69
2023/11/13 04:33:57;;;;;;;16.15;13.05;;;4.10;99.90;;;;;;5070294;28;20391;-69
2023/11/13 04:36:23;;;;;;;17.90;13.25;;;4.10;99.90;;;;;;5069904;28;20033;-69
2023/11/13 04:38:48;;;;;;;19.10;14.48;;;4.10;99.90;;;;;;5066573;28;20407;-69
2023/11/13 04:41:17;;;;;;;18.50;14.07;;;4.10;99.90;;;;;;5050680;28;20033;-69
2023/11/13 04:43:44;;;;;;;21.70;13.95;;;4.20;99.90;;;;;;5065780;28;20033;-69
2023/11/13 04:46:10;;;;;;;20.35;13.35;;;4.20;99.90;;;;;;5064920;28;20059;-69
2023/11/13 04:48:38;;;;;;;20.42;13.85;;;4.20;99.90;;;;;;5099234;28;20041;-69
2023/11/13 04:51:04;;;;;;;15.57;13.55;;;4.20;99.90;;;;;;5068445;28;20101;-69
2023/11/13 04:53:30;;;;;;;18.88;13.32;;;4.30;99.90;;;;;;5068548;28;20109;-69
2023/11/13 04:55:56;;;;;;;18.27;12.70;;;4.30;99.90;;;;;;5064213;28;20078;-69
2023/11/13 04:58:21;;;;;;;17.90;13.30;;;4.30;99.90;;;;;;5062280;28;20494;-69
2023/11/13 05:00:47;;;;;;;19.20;13.10;;;4.30;99.90;;;;;;5062068;28;20036;-69
2023/11/13 05:03:14;;;;;;;19.85;13.55;;;4.40;99.90;;;;;;5062583;28;20037;-69
2023/11/13 05:05:39;;;;;;;19.52;12.50;;;4.40;99.90;;;;;;5067893;28;20048;-69
2023/11/13 05:08:05;;;;;;;18.70;13.07;;;4.30;99.90;;;;;;5070021;28;20043;-69
2023/11/13 05:10:32;;;;;;;21.10;13.90;;;4.40;99.90;;;;;;5067819;28;20500;-69
2023/11/13 05:12:58;;;;;;;17.02;12.98;;;4.40;99.90;;;;;;5052060;28;20039;-70
2023/11/13 05:15:24;;;;;;;18.60;13.32;;;4.40;99.90;;;;;;5072740;28;20033;-69
2023/11/13 05:17:50;;;;;;;16.75;12.95;;;4.40;99.90;;;;;;5070861;28;20044;-69
2023/11/13 05:20:17;;;;;;;22.70;13.30;;;4.40;99.90;;;;;;5071075;28;20055;-69
2023/11/13 05:22:43;;;;;;;21.02;13.32;;;4.40;99.90;;;;;;5071047;28;20241;-69
2023/11/13 05:25:09;;;;;;;21.27;13.85;;;4.30;99.90;;;;;;5070513;28;20051;-70
2023/11/13 05:27:34;;;;;;;19.92;13.45;;;4.40;99.90;;;;;;5068357;28;20041;-69
2023/11/13 05:30:01;;;;;;;19.10;13.60;;;4.40;99.90;;;;;;5067843;28;20052;-69
2023/11/13 05:32:26;;;;;;;20.10;14.23;;;4.30;99.90;;;;;;5053306;28;20037;-69
2023/11/13 05:34:55;;;;;;;18.50;13.55;;;4.40;99.90;;;;;;5071539;28;20059;-69
2023/11/13 05:37:20;;;;;;;18.80;13.52;;;4.40;99.90;;;;;;5053228;28;20040;-69
2023/11/13 05:39:46;;;;;;;22.02;15.15;;;4.30;99.90;;;;;;5065286;28;20032;-69
2023/11/13 05:42:12;;;;;;;15.35;12.73;;;4.30;99.90;;;;;;5068304;28;20173;-69
2023/11/13 05:44:37;;;;;;;18.45;14.30;;;4.40;99.90;;;;;;5067684;28;20038;-69
2023/11/13 05:47:03;;;;;;;16.42;13.07;;;4.30;99.90;;;;;;5067837;28;20040;-69
2023/11/13 05:49:30;;;;;;;18.10;13.23;;;4.30;99.90;;;;;;5066690;28;20083;-69
2023/11/13 05:51:56;;;;;;;27.80;15.30;;;4.30;99.90;;;;;;5068546;28;20052;-69
2023/11/13 05:54:22;;;;;;;18.63;13.45;;;4.30;99.90;;;;;;5097992;28;20051;-69
2023/11/13 05:56:48;;;;;;;16.40;13.38;;;4.30;99.90;;;;;;5067219;28;20040;-69
2023/11/13 05:59:15;;;;;;;17.10;13.45;;;4.30;99.90;;;;;;5065221;28;20036;-69
2023/11/13 06:01:41;;;;;;;22.77;14.80;;;4.30;99.90;;;;;;5068298;28;20553;-69
2023/11/13 06:04:07;;;;;;;14.55;13.05;;;4.40;99.90;;;;;;5066722;28;20041;-69
2023/11/13 06:06:33;;;;;;;19.50;14.23;;;4.30;99.90;;;;;;5067702;28;20058;-69
2023/11/13 06:08:59;;;;;;;17.80;13.68;;;4.30;99.90;;;;;;5065689;28;20051;-69
2023/11/13 06:11:25;;;;;;;17.48;13.75;;;4.40;99.90;;;;;;5050818;28;20064;-69
2023/11/13 06:13:51;;;;;;;18.15;13.52;;;4.30;99.90;;;;;;5065754;28;20040;-68
2023/11/13 06:16:16;;;;;;;16.80;12.90;;;4.30;99.90;;;;;;5102717;28;20125;-68
2023/11/13 06:18:50;;;;;;;18.55;12.48;;;4.30;99.90;;;;;;5069740;28;20047;-68
2023/11/13 06:21:16;;;;;;;28.33;16.20;;;4.30;99.90;;;;;;5067644;28;20127;-68
2023/11/13 06:23:42;;;;;;;23.00;16.15;;;4.40;99.90;;;;;;5071555;28;20119;-68
2023/11/13 06:26:11;;;;;;;22.45;16.20;;;4.30;99.90;;;;;;5071924;28;20064;-68
2023/11/13 06:28:38;;;;;;;21.80;14.55;;;4.30;99.90;;;;;;5067096;28;20044;-69
2023/11/13 06:31:05;;;;;;;20.63;13.30;;;4.30;99.90;;;;;;5101945;28;20057;-68
2023/11/13 06:33:30;;;;;;;17.40;12.70;;;4.30;99.90;;;;;;5068215;28;20918;-68
2023/11/13 06:35:56;;;;;;;16.50;13.18;;;4.30;99.90;;;;;;5070243;28;20218;-68
2023/11/13 06:38:22;;;;;;;18.50;12.82;;;4.30;99.90;;;;;;5067867;28;20041;-68
2023/11/13 06:40:49;;;;;;;17.02;12.82;;;4.30;99.90;;;;;;5070033;28;20032;-68
2023/11/13 06:43:15;;;;;;;18.75;13.02;;;4.30;99.90;;;;;;5067166;28;20486;-69
2023/11/13 06:45:43;;;;;;;15.43;12.07;;;4.30;99.90;;;;;;5065593;28;20052;-69
2023/11/13 06:48:08;;;;;;;16.88;13.45;;;4.30;99.90;;;;;;5067642;28;20456;-69
2023/11/13 06:50:36;;;;;;;17.63;12.35;;;4.30;99.90;;;;;;5067270;28;20056;-69
2023/11/13 06:53:03;;;;;;;18.10;13.02;;;4.30;99.90;;;;;;5064297;28;20056;-69
2023/11/13 06:55:28;;;;;;;17.90;12.77;;;4.30;99.90;;;;;;5067739;28;20040;-69
2023/11/13 06:57:55;;;;;;;17.52;12.27;;;4.30;99.90;;;;;;5067622;28;20051;-69
2023/11/13 07:00:21;;;;;;;18.02;13.15;;;4.30;99.90;;;;;;5063930;28;20505;-69
2023/11/13 07:02:50;;;;;;;19.17;12.15;;;4.30;99.90;;;;;;5063264;28;20667;-69
2023/11/13 07:05:16;;;;;;;18.20;12.95;;;4.40;99.90;;;;;;5064752;28;20116;-69
2023/11/13 07:07:42;;;;;;;21.33;14.38;;;4.30;99.90;;;;;;5064589;28;20170;-69
2023/11/13 07:10:12;;;;;;;20.92;14.73;;;4.40;99.90;;;;;;5064833;28;20123;-69
2023/11/13 07:12:39;;;;;;;19.23;14.90;;;4.40;99.90;;;;;;5067802;28;20514;-69
2023/11/13 07:15:05;;;;;;;21.38;15.90;;;4.40;99.90;;;;;;5067004;28;20067;-69
2023/11/13 07:17:31;;;;;;;21.65;15.02;;;4.40;99.90;;;;;;5066525;28;20479;-69
2023/11/13 07:19:57;;;;;;;21.67;15.82;;;4.30;99.90;;;;;;5065160;28;20044;-69
2023/11/13 07:22:23;;;;;;;20.10;14.68;;;4.40;99.90;;;;;;5068672;28;20029;-69
2023/11/13 07:24:49;;;;;;;18.17;13.52;;;4.40;99.90;;;;;;5066136;28;20055;-69
2023/11/13 07:27:14;;;;;;;16.48;12.82;;;4.40;99.90;;;;;;5071132;28;20097;-69
2023/11/13 07:29:43;;;;;;;17.92;13.50;;;4.50;99.90;;;;;;5069091;28;20040;-69
2023/11/13 07:32:09;;;;;;;16.95;12.43;;;4.50;99.90;;;;;;5069899;28;20115;-69
2023/11/13 07:34:34;;;;;;;19.73;12.50;;;4.60;99.90;;;;;;5096827;28;20436;-69
2023/11/13 07:37:01;;;;;;;16.08;13.07;;;4.60;99.90;;;;;;5070947;28;20056;-69
2023/11/13 07:39:27;;;;;;;13.60;12.02;;;4.70;99.90;;;;;;5067823;28;20418;-69
2023/11/13 07:41:56;;;;;;;18.30;13.25;;;4.70;99.90;;;;;;5067143;28;20040;-69
2023/11/13 07:44:23;;;;;;;14.88;12.50;;;4.80;99.90;;;;;;5066327;28;20182;-69
2023/11/13 07:46:53;;;;;;;20.38;12.27;;;4.80;99.90;;;;;;5067813;28;20044;-69
2023/11/13 07:49:19;;;;;;;15.00;11.60;;;4.70;99.90;;;;;;5066858;28;20040;-69
2023/11/13 07:51:45;;;;;;;19.80;11.85;;;4.80;99.90;;;;;;5063869;28;20036;-69
2023/11/13 07:54:11;;;;;;;14.27;12.52;;;4.80;99.90;;;;;;5066208;28;20123;-69
2023/11/13 07:56:37;;;;;;;14.30;10.93;;;4.80;99.90;;;;;;5068136;28;20538;-69
2023/11/13 07:59:07;;;;;;;17.10;11.55;;;4.80;99.90;;;;;;5043973;28;20044;-69
2023/11/13 08:01:37;;;;;;;17.10;12.38;;;4.80;99.90;;;;;;5064351;28;20048;-69
2023/11/13 08:04:07;;;;;;;14.93;12.45;;;4.90;99.90;;;;;;5069714;28;20075;-69
2023/11/13 08:06:33;;;;;;;16.15;11.13;;;4.90;99.90;;;;;;5071280;28;20054;-69
2023/11/13 08:08:59;;;;;;;20.60;12.05;;;4.90;99.90;;;;;;5065447;28;21385;-69
2023/11/13 08:11:25;;;;;;;18.23;12.00;;;5.00;99.90;;;;;;5069151;28;20076;-69
2023/11/13 08:13:51;;;;;;;16.35;11.50;;;5.00;99.90;;;;;;5067807;28;20186;-69
2023/11/13 08:16:18;;;;;;;16.75;11.50;;;4.90;99.90;;;;;;5066391;28;20121;-69
2023/11/13 08:18:44;;;;;;;18.15;11.50;;;5.00;99.90;;;;;;5067756;28;21332;-69
2023/11/13 08:21:10;;;;;;;13.63;11.35;;;5.30;99.90;;;;;;5070548;28;20067;-69
2023/11/13 08:23:36;;;;;;;16.95;11.35;;;5.10;99.90;;;;;;5068736;28;20399;-69
2023/11/13 08:26:03;;;;;;;15.88;11.20;;;5.10;99.90;;;;;;5067999;28;20044;-69
2023/11/13 08:28:31;;;;;;;18.63;10.13;;;5.20;99.90;;;;;;5050247;28;20044;-69
2023/11/13 08:30:57;;;;;;;13.30;11.00;;;5.20;99.90;;;;;;5068214;28;20553;-69
2023/11/13 08:33:23;;;;;;;13.63;11.02;;;5.20;99.90;;;;;;5069742;28;20119;-69
2023/11/13 08:35:49;;;;;;;21.35;11.88;;;5.30;99.90;;;;;;5070281;28;20040;-69
2023/11/13 08:38:16;;;;;;;15.13;10.70;;;5.20;99.90;;;;;;5069294;28;20044;-69
2023/11/13 08:40:41;;;;;;;15.55;11.82;;;5.30;99.90;;;;;;5066876;28;20054;-69
2023/11/13 08:43:10;;;;;;;16.90;11.77;;;5.30;99.90;;;;;;5068063;28;20032;-69
2023/11/13 08:45:39;;;;;;;15.10;10.68;;;5.30;99.90;;;;;;5066459;28;20037;-69
2023/11/13 08:48:05;;;;;;;15.25;12.55;;;5.40;99.90;;;;;;5065816;28;20085;-69
2023/11/13 08:50:31;;;;;;;16.92;12.13;;;5.40;99.90;;;;;;5066853;28;20132;-69
2023/11/13 08:52:57;;;;;;;17.65;11.68;;;5.40;99.90;;;;;;5069238;28;20214;-69
2023/11/13 08:55:25;;;;;;;21.33;12.30;;;5.40;99.90;;;;;;5068228;28;20102;-69
2023/11/13 08:57:51;;;;;;;16.10;12.40;;;5.50;99.90;;;;;;5057652;28;20801;-69
2023/11/13 09:00:22;;;;;;;17.80;12.27;;;5.50;99.90;;;;;;5047900;28;20041;-69
2023/11/13 09:02:49;;;;;;;19.50;12.27;;;5.60;99.90;;;;;;5045613;28;20045;-69
2023/11/13 09:05:15;;;;;;;17.90;12.32;;;5.60;99.90;;;;;;5046332;28;21613;-69
2023/11/13 09:07:42;;;;;;;17.33;12.95;;;5.70;99.90;;;;;;5044411;28;20062;-69
2023/11/13 09:10:11;;;;;;;21.85;13.88;;;5.70;99.90;;;;;;5050413;28;20040;-69
2023/11/13 09:12:39;;;;;;;30.13;15.82;;;5.80;99.90;;;;;;5044963;28;20028;-69
2023/11/13 09:15:14;;;;;;;26.83;14.35;;;5.70;99.90;;;;;;5046628;28;20048;-69
2023/11/13 09:17:49;;;;;;;23.02;14.82;;;5.80;99.90;;;;;;5046985;28;20168;-69
2023/11/13 09:20:20;;;;;;;23.80;13.77;;;5.80;99.90;;;;;;5045634;28;20037;-69
2023/11/13 09:22:53;;;;;;;28.08;14.77;;;6.00;99.90;;;;;;5045748;28;20047;-69
2023/11/13 09:25:21;;;;;;;25.17;14.40;;;5.80;99.90;;;;;;5047565;28;20063;-69
2023/11/13 09:27:50;;;;;;;28.42;15.40;;;5.90;99.90;;;;;;5047183;28;20051;-69
2023/11/13 09:30:19;;;;;;;28.23;15.20;;;5.90;99.90;;;;;;5026739;28;20045;-69
2023/11/13 09:32:45;;;;;;;26.95;15.88;;;5.90;99.90;;;;;;5061383;28;20058;-69
2023/11/13 09:35:19;;;;;;;28.40;16.33;;;5.90;99.90;;;;;;5067938;28;20071;-69
2023/11/13 09:37:53;;;;;;;36.03;16.45;;;5.90;99.90;;;;;;5098620;28;20036;-69
2023/11/13 09:40:23;;;;;;;33.22;16.83;;;5.90;99.90;;;;;;5044220;28;20161;-69
2023/11/13 09:42:53;;;;;;;28.63;16.00;;;6.00;99.90;;;;;;5067062;28;20040;-69
2023/11/13 09:45:20;;;;;;;31.52;17.35;;;6.00;99.90;;;;;;5066212;28;20209;-69
2023/11/13 09:47:47;;;;;;;37.15;16.73;;;6.00;99.90;;;;;;5095365;28;20151;-69
2023/11/13 09:50:17;;;;;;;36.63;17.63;;;6.00;99.90;;;;;;5065676;28;20055;-69
2023/11/13 09:52:48;;;;;;;37.33;18.08;;;6.00;99.90;;;;;;5066565;28;20099;-69
2023/11/13 09:55:20;;;;;;;36.75;18.67;;;6.10;99.90;;;;;;5067703;28;20036;-69
2023/11/13 09:57:52;;;;;;;36.83;17.52;;;6.10;99.90;;;;;;5062324;28;20037;-70
2023/11/13 10:00:23;;;;;;;33.83;17.27;;;6.10;99.90;;;;;;5065033;28;20040;-70
2023/11/13 10:02:51;;;;;;;38.03;17.08;;;6.10;99.90;;;;;;5067531;28;20044;-70
2023/11/13 10:05:18;;;;;;;33.92;17.65;;;6.20;99.90;;;;;;5077905;28;20036;-70
2023/11/13 10:07:49;;;;;;;35.80;17.75;;;6.20;99.90;;;;;;5067190;28;20086;-70
2023/11/13 10:10:20;;;;;;;31.20;17.30;;;6.20;99.90;;;;;;5067093;28;20052;-70
2023/11/13 10:12:46;;;;;;;33.25;16.98;;;6.20;99.90;;;;;;5066711;28;20051;-70
2023/11/13 10:15:15;;;;;;;32.03;17.40;;;6.30;99.90;;;;;;5065971;28;20048;-69
2023/11/13 10:17:42;;;;;;;31.55;16.33;;;6.30;99.90;;;;;;5064700;28;21388;-69
2023/11/13 10:20:09;;;;;;;30.75;17.08;;;6.30;99.90;;;;;;5064427;28;20429;-69
2023/11/13 10:22:35;;;;;;;32.58;16.48;;;6.40;99.90;;;;;;5096150;27;20719;-69
2023/11/13 10:25:00;;;;;;;32.00;16.52;;;6.40;99.90;;;;;;5067359;28;20127;-69
2023/11/13 10:27:29;;;;;;;32.50;17.02;;;6.40;99.90;;;;;;5067949;28;20453;-69
2023/11/13 10:30:05;;;;;;;29.75;15.93;;;6.40;99.90;;;;;;5047674;28;20127;-69
2023/11/13 10:32:32;;;;;;;29.88;16.80;;;6.50;99.90;;;;;;5065244;28;20045;-69
2023/11/13 10:34:58;;;;;;;34.83;16.48;;;6.60;99.90;;;;;;5062878;28;20074;-69
2023/11/13 10:37:24;;;;;;;35.05;17.27;;;6.60;99.90;;;;;;5097522;27;20131;-69
2023/11/13 10:39:51;;;;;;;32.50;17.95;;;6.60;99.90;;;;;;5064919;28;20357;-69
2023/11/13 10:42:23;;;;;;;33.33;17.10;;;6.70;99.90;;;;;;5065824;28;20044;-69
2023/11/13 10:44:51;;;;;;;31.05;16.90;;;6.70;99.90;;;;;;5065089;28;20386;-69
2023/11/13 10:47:35;;;;;;;30.20;17.38;;;6.80;99.90;;;;;;5063498;28;20049;-69
2023/11/13 10:50:01;;;;;;;31.45;16.52;;;6.80;99.90;;;;;;5060922;28;20045;-69
2023/11/13 10:52:29;;;;;;;34.35;18.25;;;6.80;99.90;;;;;;5059238;28;20075;-70
2023/11/13 10:54:56;;;;;;;30.95;18.55;;;7.10;99.90;;;;;;5061166;28;20125;-69
2023/11/13 10:57:26;;;;;;;29.80;17.67;;;7.40;99.90;;;;;;5063532;28;20054;-69
2023/11/13 10:59:53;;;;;;;32.75;17.77;;;6.90;99.90;;;;;;5096512;28;20079;-69
2023/11/13 11:02:43;;;;;;;32.17;17.25;;;6.90;99.90;;;;;;5066603;28;20047;-70
2023/11/13 11:05:19;;;;;;;26.63;16.48;;;7.00;99.90;;;;;;5064443;28;20514;-70
2023/11/13 11:07:54;;;;;;;22.50;15.00;;;7.00;99.90;;;;;;5064664;28;20456;-70
2023/11/13 11:10:26;;;;;;;24.33;15.20;;;7.10;99.90;;;;;;5060870;28;20044;-69
2023/11/13 11:13:05;;;;;;;20.33;14.00;;;7.10;99.90;;;;;;5066504;28;20398;-70
2023/11/13 11:15:43;;;;;;;26.80;16.63;;;7.20;99.90;;;;;;5063202;28;20047;-69
2023/11/13 11:18:37;;;;;;;25.90;15.73;;;7.30;99.90;;;;;;5098891;27;21372;-69
2023/11/13 11:21:08;;;;;;;22.88;14.73;;;7.20;99.90;;;;;;5076199;28;20384;-69
2023/11/13 11:23:44;;;;;;;27.77;17.05;;;7.30;99.90;;;;;;5064566;28;20037;-69
2023/11/13 11:26:10;;;;;;;23.65;15.63;;;7.30;99.90;;;;;;5065197;28;20037;-69
2023/11/13 11:28:41;;;;;;;22.67;15.32;;;7.30;99.90;;;;;;5067262;28;20052;-70
2023/11/13 11:31:33;;;;;;;27.90;15.57;;;7.40;99.90;;;;;;5082171;28;20044;-70
2023/11/13 11:34:00;;;;;;;23.15;15.32;;;7.40;99.90;;;;;;5063391;28;20048;-70
2023/11/13 11:36:33;;;;;;;21.45;14.70;;;7.50;99.90;;;;;;5048091;28;20040;-69
2023/11/13 11:39:12;;;;;;;18.85;13.43;;;7.50;99.90;;;;;;5062815;28;20055;-70
2023/11/13 11:41:40;;;;;;;21.90;12.68;;;7.70;99.90;;;;;;5062311;28;20037;-70
2023/11/13 11:44:11;;;;;;;21.50;13.15;;;7.80;99.90;;;;;;5055548;28;20076;-70
2023/11/13 11:46:54;;;;;;;17.02;11.60;;;7.90;99.90;;;;;;5084915;28;20037;-70
2023/11/13 11:49:27;;;;;;;16.63;11.73;;;7.90;99.90;;;;;;5061070;28;20390;-70
2023/11/13 11:52:11;;;;;;;17.02;11.25;;;8.00;99.90;;;;;;5063867;28;20048;-69
2023/11/13 11:54:38;;;;;;;16.60;11.45;;;8.10;99.90;;;;;;5062492;28;20483;-70
2023/11/13 11:57:06;;;;;;;13.52;10.68;;;8.10;99.90;;;;;;5062985;28;20051;-69
2023/11/13 11:59:32;;;;;;;14.50;10.98;;;8.20;99.90;;;;;;5061523;28;20051;-69
2023/11/13 12:01:59;;;;;;;15.70;11.27;;;8.20;99.90;;;;;;5067938;28;20040;-69
2023/11/13 12:04:25;;;;;;;15.23;11.55;;;8.20;99.90;;;;;;5061594;28;20043;-69
2023/11/13 12:06:52;;;;;;;13.57;10.98;;;8.30;99.90;;;;;;5066159;28;20037;-69
2023/11/13 12:09:21;;;;;;;14.93;11.27;;;8.30;99.90;;;;;;5062396;28;20041;-69
2023/11/13 12:11:48;;;;;;;11.27;9.70;;;8.40;99.90;;;;;;5058855;28;20037;-69
2023/11/13 12:14:15;;;;;;;15.27;10.05;;;8.40;99.90;;;;;;5063261;28;20052;-69
2023/11/13 12:16:41;;;;;;;13.90;10.38;;;8.40;99.90;;;;;;5064368;28;20033;-69
2023/11/13 12:19:09;;;;;;;13.43;9.55;;;8.40;99.90;;;;;;5064507;28;20052;-69
2023/11/13 12:21:36;;;;;;;12.25;9.88;;;8.50;99.90;;;;;;5064086;28;20040;-69
2023/11/13 12:24:02;;;;;;;11.80;8.93;;;8.50;99.90;;;;;;5063606;28;20562;-69
2023/11/13 12:26:28;;;;;;;11.27;8.85;;;8.50;99.90;;;;;;5063087;28;20142;-70
2023/11/13 12:28:54;;;;;;;11.55;8.50;;;8.60;99.90;;;;;;5064688;28;20397;-69
2023/11/13 12:31:21;;;;;;;12.23;8.50;;;8.60;99.90;;;;;;5062377;28;20182;-70
2023/11/13 12:33:47;;;;;;;9.30;8.20;;;8.60;99.90;;;;;;5062758;28;20052;-69
2023/11/13 12:36:14;;;;;;;11.88;8.30;;;8.60;99.90;;;;;;5064021;28;20075;-69
2023/11/13 12:38:43;;;;;;;12.05;9.13;;;8.60;99.90;;;;;;5062743;28;20045;-69